Weather at Camarillo International Airport

Public forecast

Using degrees Fahrenheit for public forecast. Weather courtesy of forecast.io.

Current aviation weather report (METAR) for Camarillo International Airport

Report is more than 6 hours old.

2022/11/14 14:55 (retrieved 2 years ago)

KCMA 141455Z 00000KT 10SM CLR 07/00 A3011 RMK AO2 SLP205 T00670000 53012

Aviation forecast (TAF) for Camarillo International Airport

Forecast is more than 12 hours old.

2023/02/22 18:09 Ammendment (retrieved 1 year ago)

TAF AMD KCMA 221807Z 2218/2318 27019G32KT P6SM SKC FM222000 28025G35KT P6SM SCT050 SCT100 FM230200 29017G27KT P6SM SCT050 SCT100 FM230400 28012G22KT P6SM VCSH SCT050 BKN100 FM230700 28007KT P6SM -SHRA BKN050 OVC090 FM231200 27006KT 6SM -RA BR BKN025 OVC040